Buoy 51523

sailwx.info

Track history (hours):
 
Tides and Currents Weather Stations Pressure Air Temp Water Temp Dewpoint Dewpoint Depression Visibility Wind Speed Wind Dir Waves Ship Positions

Drifting buoy 51523

Last reported at 2015-Mar-05 08:00 UTC. Time now 2015-Mar-05 10:30 UTC.
Position N 11°25' W 151°28'.

Water temperature 26.8 ° C

Date/timePositionNaut miles runAvg speedWind from/ knotsBaromVisibWave heightAir tempDewpointWater temp
2015-Mar-05 08:00N 11°25' W 151°28'0 0.0 26.8
2015-Mar-05 07:45N 11°25' W 151°28'2 4.1 26.8
2015-Mar-05 07:15N 11°24' W 151°26'0 0.0 26.8
2015-Mar-05 07:00N 11°24' W 151°26'0 0.0 26.8
2015-Mar-05 06:15N 11°24' W 151°26'0 0.0 26.8
2015-Mar-05 05:45N 11°24' W 151°26'0 0.1 26.8
2015-Mar-05 04:00N 11°24' W 151°26'0 0.1 26.8
2015-Mar-05 03:30N 11°24' W 151°26'0 1.4 26.8
2015-Mar-05 03:15N 11°24' W 151°26'0 0.0 26.8
2015-Mar-05 03:00N 11°24' W 151°26'1 3.5 26.8
2015-Mar-05 02:45N 11°25' W 151°26'1 1.0 26.8
2015-Mar-05 01:30N 11°25' W 151°24'0 0.0 26.8
2015-Mar-05 00:00N 11°25' W 151°24'2 7.7 26.8
2015-Mar-04 23:45N 11°24' W 151°22'0 0.0 26.8
2015-Mar-04 20:45N 11°24' W 151°22'1 1.7 26.8
2015-Mar-04 20:15N 11°24' W 151°22'1 3.3 26.8
2015-Mar-04 20:00N 11°24' W 151°22'1 1.9 26.8
2015-Mar-04 19:15N 11°24' W 151°21'2 0.8 26.8
2015-Mar-04 17:15N 11°24' W 151°20'0 0.0 26.7
2015-Mar-04 16:15N 11°24' W 151°20'0 0.2 26.8
2015-Mar-04 15:45N 11°24' W 151°20'1 3.4 26.8
2015-Mar-04 15:30N 11°24' W 151°19'0 0.0 26.8
2015-Mar-04 14:45N 11°24' W 151°19'0 0.0 26.8
2015-Mar-04 14:30N 11°24' W 151°19'0 0.0 26.8
2015-Mar-04 14:15N 11°24' W 151°19'0 1.9 26.8
2015-Mar-04 14:00N 11°24' W 151°18'0 0.1 26.8
2015-Mar-04 12:45N 11°24' W 151°18'0 0.0 26.8
2015-Mar-04 12:30N 11°24' W 151°18'3 0.6 26.8
2015-Mar-04 08:15N 11°23' W 151°16'1 0.7 26.8
2015-Mar-04 06:45N 11°23' W 151°15'2 1.0 26.8
2015-Mar-04 04:45N 11°23' W 151°13'0 0.0 26.8
2015-Mar-04 04:30N 11°23' W 151°13'1 1.0 26.8
2015-Mar-04 03:45N 11°23' W 151°12'0 0.0 26.8
2015-Mar-04 03:30N 11°23' W 151°12'611.1 26.8
2015-Mar-04 03:00N 11°24' W 151°06'0 0.0 26.8
2015-Mar-04 01:45N 11°24' W 151°06'0 0.0 26.9
2015-Mar-04 01:30N 11°24' W 151°06'0 0.0 26.8
2015-Mar-04 00:00N 11°24' W 151°06'0 0.0 26.9
2015-Mar-03 23:45N 11°24' W 151°06'0 0.0 26.9
2015-Mar-03 21:15N 11°24' W 151°06'0 0.0 26.8
2015-Mar-03 20:30N 11°24' W 151°06'0 0.0 26.8
2015-Mar-03 20:15N 11°24' W 151°06'1 1.6 26.8
2015-Mar-03 19:45N 11°24' W 151°06'0 0.0 26.8
2015-Mar-03 19:30N 11°24' W 151°06'0 0.0 26.8
2015-Mar-03 18:45N 11°24' W 151°06'1 0.6 26.7
2015-Mar-03 16:45N 11°25' W 151°04'1 2.1 26.7
2015-Mar-03 16:15N 11°25' W 151°03'0 0.5 26.7
2015-Mar-03 16:00N 11°24' W 151°04'0 0.0 26.7
2015-Mar-03 15:45N 11°24' W 151°04'1 1.3 26.7
2015-Mar-03 15:15N 11°25' W 151°03'0 0.2 26.7
2015-Mar-03 15:00N 11°25' W 151°03'0 0.3 26.7
2015-Mar-03 14:15N 11°25' W 151°03'1 0.7 26.8
2015-Mar-03 13:00N 11°25' W 151°02'0 0.0 26.8
2015-Mar-03 12:45N 11°25' W 151°02'3 1.8 26.8
2015-Mar-03 11:15N 11°27' W 150°60'0 0.0 26.8
2015-Mar-03 11:00N 11°27' W 150°60'0 0.0 26.8
2015-Mar-03 08:45N 11°27' W 150°60'0 0.0 26.8
2015-Mar-03 08:30N 11°27' W 150°60'0 0.0 26.8
2015-Mar-03 08:00N 11°27' W 150°60'1 2.6 26.8
2015-Mar-03 07:45N 11°27' W 150°59'1 1.1 26.8
2015-Mar-03 07:00N 11°28' W 150°59'0 0.0 26.8
2015-Mar-03 06:15N 11°28' W 150°59'1 1.1 26.8
2015-Mar-03 05:15N 11°27' W 150°59'1 4.4 26.8
2015-Mar-03 05:00N 11°28' W 150°59'2 1.2 26.8
2015-Mar-03 03:30N 11°27' W 150°58'1 4.5 26.8
2015-Mar-03 03:15N 11°27' W 150°57'0 0.0 26.8
2015-Mar-03 02:30N 11°27' W 150°57'0 0.0 26.8
2015-Mar-03 01:45N 11°27' W 150°57'0 0.0 26.8
2015-Mar-03 01:30N 11°27' W 150°57'1 1.0 26.8
2015-Mar-03 00:15N 11°26' W 150°55'0 0.0 26.8
2015-Mar-03 00:00N 11°26' W 150°55'0 0.0 26.8
2015-Mar-02 20:45N 11°26' W 150°55'1 1.4 26.8
2015-Mar-02 20:00N 11°27' W 150°54'0 1.4 26.8
2015-Mar-02 19:45N 11°27' W 150°55'2 3.4 26.8
2015-Mar-02 19:15N 11°27' W 150°53'0 0.0 26.8
2015-Mar-02 19:00N 11°27' W 150°53'0 0.2 26.8
2015-Mar-02 17:00N 11°27' W 150°53'0 1.6 26.8
2015-Mar-02 16:45N 11°27' W 150°53'0 1.6 26.8
2015-Mar-02 16:30N 11°27' W 150°53'0 0.0 26.8
2015-Mar-02 16:15N 11°27' W 150°53'0 0.0 26.8
2015-Mar-02 16:00N 11°27' W 150°53'0 0.0 26.8
2015-Mar-02 15:30N 11°27' W 150°53'0 0.0 26.8
2015-Mar-02 15:15N 11°27' W 150°53'0 0.0 26.8
2015-Mar-02 15:00N 11°27' W 150°53'0 0.0 26.8
2015-Mar-02 14:45N 11°27' W 150°53'0 0.2 26.8
2015-Mar-02 14:30N 11°27' W 150°53'0 0.0 26.8
2015-Mar-02 14:15N 11°27' W 150°53'1 0.7 26.8
2015-Mar-02 13:00N 11°27' W 150°52'1 0.6 26.8
2015-Mar-02 11:30N 11°26' W 150°52'310.6 26.8
2015-Mar-02 11:15N 11°24' W 150°50'0 0.0 26.8
2015-Mar-02 09:00N 11°24' W 150°50'1 1.0 26.8
2015-Mar-02 08:15N 11°25' W 150°49'3 1.3 26.8
2015-Mar-02 05:45N 11°24' W 150°46'0 0.0 26.9
2015-Mar-02 05:30N 11°24' W 150°46'0 0.0 26.9
2015-Mar-02 04:00N 11°24' W 150°46'0 0.0 26.9
2015-Mar-02 03:45N 11°24' W 150°46'1 3.3 26.9
2015-Mar-02 03:30N 11°24' W 150°45'0 0.0 26.9
2015-Mar-02 03:15N 11°24' W 150°45'0 0.0 26.9
2015-Mar-02 03:00N 11°24' W 150°45'1 2.9 26.9
2015-Mar-02 02:45N 11°23' W 150°45'1 1.2 26.9
2015-Mar-02 01:45N 11°23' W 150°43'0 0.0 26.9
2015-Mar-02 00:30N 11°23' W 150°43'312.5 26.9
2015-Mar-02 00:15N 11°23' W 150°40'0 0.0 26.9
2015-Mar-01 22:45N 11°23' W 150°40'3 1.1 26.9
2015-Mar-01 20:15N 11°25' W 150°38'0 0.0 26.9
2015-Mar-01 18:45N 11°25' W 150°38'2 6.7 26.8
2015-Mar-01 18:30N 11°24' W 150°36'0 0.3 26.8
2015-Mar-01 17:00N 11°24' W 150°36'1 1.0 26.8
2015-Mar-01 16:15N 11°25' W 150°35'1 1.5 26.8
2015-Mar-01 15:45N 11°24' W 150°36'1 1.5 26.8
2015-Mar-01 15:15N 11°25' W 150°35'0 0.1 26.8
2015-Mar-01 14:45N 11°25' W 150°35'0 0.0 26.9
2015-Mar-01 14:30N 11°25' W 150°35'5 0.8 26.9
2015-Mar-01 08:30N 11°27' W 150°31'1 1.4 26.9
2015-Mar-01 07:45N 11°27' W 150°30'0 0.0 26.9
2015-Mar-01 07:30N 11°27' W 150°30'1 1.3 26.9
2015-Mar-01 07:00N 11°27' W 150°31'1 2.5 26.9
2015-Mar-01 06:45N 11°27' W 150°30'1 0.2 26.9
2015-Mar-01 04:30N 11°27' W 150°30'0 0.0 27.0
2015-Mar-01 03:45N 11°27' W 150°30'1 2.0 27.0
2015-Mar-01 03:30N 11°28' W 150°29'0 0.0 27.0
2015-Mar-01 03:15N 11°28' W 150°29'0 0.0 27.0
2015-Mar-01 02:45N 11°28' W 150°29'1 0.9 27.0
2015-Mar-01 02:00N 11°28' W 150°29'0 0.0 27.0
2015-Mar-01 01:45N 11°28' W 150°29'0 0.0 27.0
2015-Mar-01 00:45N 11°28' W 150°29'0 1.9 27.0
2015-Mar-01 00:30N 11°29' W 150°29'1 0.8 27.0
2015-Feb-28 22:45N 11°29' W 150°27'0 0.0 26.9
2015-Feb-28 20:30N 11°29' W 150°27'0 0.7 26.8
2015-Feb-28 20:00N 11°29' W 150°27'0 0.0 26.8
2015-Feb-28 19:45N 11°29' W 150°27'0 0.6 26.8
2015-Feb-28 19:00N 11°29' W 150°28'1 0.5 26.8
2015-Feb-28 16:30N 11°29' W 150°26'0 0.0 26.7
2015-Feb-28 16:15N 11°29' W 150°26'0 0.0 26.7
2015-Feb-28 16:00N 11°29' W 150°26'0 0.0 26.8
2015-Feb-28 15:45N 11°29' W 150°26'0 0.0 26.8
2015-Feb-28 14:45N 11°29' W 150°26'2 0.8 26.8
2015-Feb-28 11:45N 11°28' W 150°24'0 0.0 26.9
2015-Feb-28 09:00N 11°28' W 150°24'1 1.3 26.9
2015-Feb-28 08:00N 11°27' W 150°23'0 0.1 26.9
2015-Feb-28 07:15N 11°27' W 150°23'0 0.0 26.9
2015-Feb-28 06:30N 11°27' W 150°23'0 1.7 26.9
2015-Feb-28 06:15N 11°27' W 150°23'0 0.0 26.9
2015-Feb-28 05:00N 11°27' W 150°23'1 1.1 27.0
2015-Feb-28 04:00N 11°26' W 150°22'2 0.8 27.0
2015-Feb-28 02:00N 11°27' W 150°21'2 0.8 27.1
2015-Feb-27 23:00N 11°26' W 150°18'0 0.0 27.0
2015-Feb-27 21:00N 11°26' W 150°18'2 2.2 26.9
2015-Feb-27 20:15N 11°26' W 150°17'2 6.5 26.8
2015-Feb-27 20:00N 11°26' W 150°18'3 2.2 26.8
2015-Feb-27 18:30N 11°27' W 150°15'0 0.0 26.8
2015-Feb-27 16:45N 11°27' W 150°15'1 4.5 26.8
2015-Feb-27 16:30N 11°27' W 150°14'0 0.0 26.8
2015-Feb-27 15:00N 11°27' W 150°14'1 4.2 26.8
2015-Feb-27 14:45N 11°27' W 150°13'0 0.0 26.8
2015-Feb-27 13:30N 11°27' W 150°13'1 0.4 26.8
2015-Feb-27 12:00N 11°27' W 150°12'0 0.0 26.8
2015-Feb-27 11:45N 11°27' W 150°12'3 0.9 26.8
2015-Feb-27 08:15N 11°28' W 150°09'0 0.0 26.8
2015-Feb-27 07:45N 11°28' W 150°09'2 9.9 26.8
2015-Feb-27 07:30N 11°28' W 150°06'0 0.0 26.9
2015-Feb-27 06:45N 11°28' W 150°06'0 0.0 26.9
2015-Feb-27 06:30N 11°28' W 150°06'0 0.0 26.9
2015-Feb-27 05:30N 11°28' W 150°06'0 0.0 26.9
2015-Feb-27 04:15N 11°28' W 150°06'1 3.5 26.9
2015-Feb-27 04:00N 11°28' W 150°06'0 0.0 26.9
2015-Feb-27 03:45N 11°28' W 150°06'2 0.6 27.0
2015-Feb-27 01:00N 11°28' W 150°04'0 0.0 27.0
2015-Feb-27 00:45N 11°28' W 150°04'2 1.5 27.0
2015-Feb-26 23:15N 11°28' W 150°02'0 0.0 26.9
2015-Feb-26 20:30N 11°28' W 150°02'2 2.4 26.8
2015-Feb-26 19:45N 11°29' W 150°00'0 0.0 26.8
2015-Feb-26 18:45N 11°29' W 150°00'3 0.8 26.8
2015-Feb-26 15:30N 11°31' W 149°59'0 0.0 26.8
2015-Feb-26 15:15N 11°31' W 149°59'0 0.0 26.8
2015-Feb-26 15:00N 11°31' W 149°59'3 1.7 26.8
2015-Feb-26 13:30N 11°33' W 149°56'0 0.0 26.8
2015-Feb-26 12:15N 11°33' W 149°56'0 0.0 26.8
2015-Feb-26 12:00N 11°33' W 149°56'0 0.0 26.8
2015-Feb-26 08:45N 11°33' W 149°56'1 1.2 26.8
2015-Feb-26 08:00N 11°33' W 149°56'0 0.0 26.8
2015-Feb-26 07:45N 11°33' W 149°56'0 0.0 26.8
2015-Feb-26 07:15N 11°33' W 149°56'0 0.0 26.8
2015-Feb-26 07:00N 11°33' W 149°56'1 0.5 26.8
2015-Feb-26 04:30N 11°33' W 149°54'0 0.0 26.9
2015-Feb-26 04:15N 11°33' W 149°54'0 0.0 26.9
2015-Feb-26 03:00N 11°33' W 149°54'1 1.3 26.9
2015-Feb-26 02:30N 11°32' W 149°55'1 0.8 26.9
2015-Feb-26 01:00N 11°31' W 149°54'0 0.0 27.0
2015-Feb-25 23:30N 11°31' W 149°54'310.7 26.9
2015-Feb-25 23:15N 11°31' W 149°51'0 0.0 26.9
2015-Feb-25 21:00N 11°31' W 149°51'0 0.0 26.8
2015-Feb-25 20:45N 11°31' W 149°51'1 1.1 26.8
2015-Feb-25 20:00N 11°31' W 149°50'0 0.2 26.8
2015-Feb-25 19:15N 11°31' W 149°50'2 7.5 26.8
2015-Feb-25 19:00N 11°32' W 149°49'0 0.0 26.8
2015-Feb-25 18:15N 11°32' W 149°49'0 0.0 26.8
2015-Feb-25 17:30N 11°32' W 149°49'0 0.0 26.8
2015-Feb-25 16:00N 11°32' W 149°49'1 2.6 26.8
2015-Feb-25 15:45N 11°32' W 149°48'0 0.0 26.8
2015-Feb-25 15:30N 11°32' W 149°48'0 0.0 26.8
2015-Feb-25 15:15N 11°32' W 149°48'1 0.9 26.8
2015-Feb-25 13:45N 11°32' W 149°47'0 0.0 26.8
2015-Feb-25 12:15N 11°32' W 149°47'3 0.8 26.8
2015-Feb-25 09:00N 11°34' W 149°44'0 0.0 26.8
2015-Feb-25 07:30N 11°34' W 149°44'1 2.4 26.8
2015-Feb-25 07:15N 11°34' W 149°44'0 0.0 26.8
2015-Feb-25 06:45N 11°34' W 149°44'0 1.0 26.8
2015-Feb-25 06:30N 11°34' W 149°44'2 1.2 26.8
2015-Feb-25 05:00N 11°33' W 149°42'2 7.5 26.8
2015-Feb-25 04:45N 11°34' W 149°44'2 1.2 26.8
2015-Feb-25 03:15N 11°33' W 149°42'2 4.3 26.9
2015-Feb-25 02:45N 11°33' W 149°40'0 0.0 26.9
2015-Feb-25 02:30N 11°33' W 149°40'0 0.0 26.9
2015-Feb-25 01:15N 11°33' W 149°40'0 0.0 26.9
2015-Feb-24 23:45N 11°33' W 149°40'2 7.6 26.9
2015-Feb-24 23:30N 11°34' W 149°38'2 0.6 26.9
2015-Feb-24 20:30N 11°34' W 149°36'0 0.0 26.8
2015-Feb-24 20:15N 11°34' W 149°36'0 0.0 26.8
2015-Feb-24 19:30N 11°34' W 149°36'1 1.1 26.8
2015-Feb-24 18:45N 11°34' W 149°36'0 0.0 26.8
2015-Feb-24 18:30N 11°34' W 149°36'1 0.3 26.8
2015-Feb-24 16:15N 11°34' W 149°35'0 0.0 26.8
2015-Feb-24 15:45N 11°34' W 149°35'0 0.0 26.8
2015-Feb-24 15:30N 11°34' W 149°35'2 2.3 26.8
2015-Feb-24 14:45N 11°36' W 149°34'1 1.1 26.8
2015-Feb-24 14:00N 11°35' W 149°34'0 0.0 26.8
2015-Feb-24 13:45N 11°35' W 149°34'0 0.0 26.8
2015-Feb-24 12:30N 11°35' W 149°34'0 0.0 26.8
2015-Feb-24 12:15N 11°35' W 149°34'3 2.1 26.8
2015-Feb-24 10:45N 11°34' W 149°31'0 0.0 26.8
2015-Feb-24 08:45N 11°34' W 149°31'0 0.0 26.9
2015-Feb-24 07:45N 11°34' W 149°31'0 0.0 26.9
2015-Feb-24 07:00N 11°34' W 149°31'2 1.0 26.9
2015-Feb-24 05:30N 11°33' W 149°31'0 0.0 26.9
2015-Feb-24 05:15N 11°33' W 149°31'2 1.3 26.9
2015-Feb-24 03:45N 11°34' W 149°29'0 0.0 26.9
2015-Feb-24 03:30N 11°34' W 149°29'714.0 26.9
2015-Feb-24 03:00N 11°34' W 149°22'0 0.0 27.0
2015-Feb-24 02:45N 11°34' W 149°22'0 0.0 27.0
2015-Feb-24 01:30N 11°34' W 149°22'0 0.0 27.0
2015-Feb-24 00:00N 11°34' W 149°22'0 0.0 27.0
2015-Feb-23 23:45N 11°34' W 149°22'0 0.0 27.0
2015-Feb-23 20:45N 11°34' W 149°22'0 0.0 26.9
2015-Feb-23 20:30N 11°34' W 149°22'0 0.0 26.9
2015-Feb-23 20:00N 11°34' W 149°22'0 0.4 26.9
2015-Feb-23 19:00N 11°34' W 149°22'0 0.0 26.9
2015-Feb-23 17:00N 11°34' W 149°22'2 6.6 26.9
2015-Feb-23 16:45N 11°35' W 149°21'0 0.0 26.9
2015-Feb-23 15:45N 11°35' W 149°21'1 1.2 26.9
2015-Feb-23 15:00N 11°34' W 149°20'0 0.0 26.9
2015-Feb-23 14:15N 11°34' W 149°20'1 3.1 26.9
2015-Feb-23 14:00N 11°34' W 149°19'0 0.0 26.9
2015-Feb-23 12:45N 11°34' W 149°19'0 0.0 26.9
2015-Feb-23 12:30N 11°34' W 149°19'3 2.1 26.9
2015-Feb-23 11:00N 11°33' W 149°16'0 0.0 26.9
2015-Feb-23 08:15N 11°33' W 149°16'1 2.7 26.9
2015-Feb-23 08:00N 11°33' W 149°16'   26.9
Track history (hours):
 
Tides and Currents Weather Stations Pressure Air Temp Water Temp Dewpoint Dewpoint Depression Visibility Wind Speed Wind Dir Waves Ship Positions

Drifting buoy 51523

Last reported at 2015-Mar-05 08:00 UTC. Time now 2015-Mar-05 10:30 UTC.
Position N 11°25' W 151°28'.

Water temperature 26.8 ° C

Date/timePositionNaut miles runAvg speedWind from/ knotsBaromVisibWave heightAir tempDewpointWater temp
2015-Mar-05 08:00N 11°25' W 151°28'0 0.0 26.8
2015-Mar-05 07:45N 11°25' W 151°28'2 4.1 26.8
2015-Mar-05 07:15N 11°24' W 151°26'0 0.0 26.8
2015-Mar-05 07:00N 11°24' W 151°26'0 0.0 26.8
2015-Mar-05 06:15N 11°24' W 151°26'0 0.0 26.8
2015-Mar-05 05:45N 11°24' W 151°26'0 0.1 26.8
2015-Mar-05 04:00N 11°24' W 151°26'0 0.1 26.8
2015-Mar-05 03:30N 11°24' W 151°26'0 1.4 26.8
2015-Mar-05 03:15N 11°24' W 151°26'0 0.0 26.8
2015-Mar-05 03:00N 11°24' W 151°26'1 3.5 26.8
2015-Mar-05 02:45N 11°25' W 151°26'1 1.0 26.8
2015-Mar-05 01:30N 11°25' W 151°24'0 0.0 26.8
2015-Mar-05 00:00N 11°25' W 151°24'2 7.7 26.8
2015-Mar-04 23:45N 11°24' W 151°22'0 0.0 26.8
2015-Mar-04 20:45N 11°24' W 151°22'1 1.7 26.8
2015-Mar-04 20:15N 11°24' W 151°22'1 3.3 26.8
2015-Mar-04 20:00N 11°24' W 151°22'1 1.9 26.8
2015-Mar-04 19:15N 11°24' W 151°21'2 0.8 26.8
2015-Mar-04 17:15N 11°24' W 151°20'0 0.0 26.7
2015-Mar-04 16:15N 11°24' W 151°20'0 0.2 26.8
2015-Mar-04 15:45N 11°24' W 151°20'1 3.4 26.8
2015-Mar-04 15:30N 11°24' W 151°19'0 0.0 26.8
2015-Mar-04 14:45N 11°24' W 151°19'0 0.0 26.8
2015-Mar-04 14:30N 11°24' W 151°19'0 0.0 26.8
2015-Mar-04 14:15N 11°24' W 151°19'0 1.9 26.8
2015-Mar-04 14:00N 11°24' W 151°18'0 0.1 26.8
2015-Mar-04 12:45N 11°24' W 151°18'0 0.0 26.8
2015-Mar-04 12:30N 11°24' W 151°18'3 0.6 26.8
2015-Mar-04 08:15N 11°23' W 151°16'1 0.7 26.8
2015-Mar-04 06:45N 11°23' W 151°15'2 1.0 26.8
2015-Mar-04 04:45N 11°23' W 151°13'0 0.0 26.8
2015-Mar-04 04:30N 11°23' W 151°13'1 1.0 26.8
2015-Mar-04 03:45N 11°23' W 151°12'0 0.0 26.8
2015-Mar-04 03:30N 11°23' W 151°12'611.1 26.8
2015-Mar-04 03:00N 11°24' W 151°06'0 0.0 26.8
2015-Mar-04 01:45N 11°24' W 151°06'0 0.0 26.9
2015-Mar-04 01:30N 11°24' W 151°06'0 0.0 26.8
2015-Mar-04 00:00N 11°24' W 151°06'0 0.0 26.9
2015-Mar-03 23:45N 11°24' W 151°06'0 0.0 26.9
2015-Mar-03 21:15N 11°24' W 151°06'0 0.0 26.8
2015-Mar-03 20:30N 11°24' W 151°06'0 0.0 26.8
2015-Mar-03 20:15N 11°24' W 151°06'1 1.6 26.8
2015-Mar-03 19:45N 11°24' W 151°06'0 0.0 26.8
2015-Mar-03 19:30N 11°24' W 151°06'0 0.0 26.8
2015-Mar-03 18:45N 11°24' W 151°06'1 0.6 26.7
2015-Mar-03 16:45N 11°25' W 151°04'1 2.1 26.7
2015-Mar-03 16:15N 11°25' W 151°03'0 0.5 26.7
2015-Mar-03 16:00N 11°24' W 151°04'0 0.0 26.7
2015-Mar-03 15:45N 11°24' W 151°04'1 1.3 26.7
2015-Mar-03 15:15N 11°25' W 151°03'0 0.2 26.7
2015-Mar-03 15:00N 11°25' W 151°03'0 0.3 26.7
2015-Mar-03 14:15N 11°25' W 151°03'1 0.7 26.8
2015-Mar-03 13:00N 11°25' W 151°02'0 0.0 26.8
2015-Mar-03 12:45N 11°25' W 151°02'3 1.8 26.8
2015-Mar-03 11:15N 11°27' W 150°60'0 0.0 26.8
2015-Mar-03 11:00N 11°27' W 150°60'0 0.0 26.8
2015-Mar-03 08:45N 11°27' W 150°60'0 0.0 26.8
2015-Mar-03 08:30N 11°27' W 150°60'0 0.0 26.8
2015-Mar-03 08:00N 11°27' W 150°60'1 2.6 26.8
2015-Mar-03 07:45N 11°27' W 150°59'1 1.1 26.8
2015-Mar-03 07:00N 11°28' W 150°59'0 0.0 26.8
2015-Mar-03 06:15N 11°28' W 150°59'1 1.1 26.8
2015-Mar-03 05:15N 11°27' W 150°59'1 4.4 26.8
2015-Mar-03 05:00N 11°28' W 150°59'2 1.2 26.8
2015-Mar-03 03:30N 11°27' W 150°58'1 4.5 26.8
2015-Mar-03 03:15N 11°27' W 150°57'0 0.0 26.8
2015-Mar-03 02:30N 11°27' W 150°57'0 0.0 26.8
2015-Mar-03 01:45N 11°27' W 150°57'0 0.0 26.8
2015-Mar-03 01:30N 11°27' W 150°57'1 1.0 26.8
2015-Mar-03 00:15N 11°26' W 150°55'0 0.0 26.8
2015-Mar-03 00:00N 11°26' W 150°55'0 0.0 26.8
2015-Mar-02 20:45N 11°26' W 150°55'1 1.4 26.8
2015-Mar-02 20:00N 11°27' W 150°54'0 1.4 26.8
2015-Mar-02 19:45N 11°27' W 150°55'2 3.4 26.8
2015-Mar-02 19:15N 11°27' W 150°53'0 0.0 26.8
2015-Mar-02 19:00N 11°27' W 150°53'0 0.2 26.8
2015-Mar-02 17:00N 11°27' W 150°53'0 1.6 26.8
2015-Mar-02 16:45N 11°27' W 150°53'0 1.6 26.8
2015-Mar-02 16:30N 11°27' W 150°53'0 0.0 26.8
2015-Mar-02 16:15N 11°27' W 150°53'0 0.0 26.8
2015-Mar-02 16:00N 11°27' W 150°53'0 0.0 26.8
2015-Mar-02 15:30N 11°27' W 150°53'0 0.0 26.8
2015-Mar-02 15:15N 11°27' W 150°53'0 0.0 26.8
2015-Mar-02 15:00N 11°27' W 150°53'0 0.0 26.8
2015-Mar-02 14:45N 11°27' W 150°53'0 0.2 26.8
2015-Mar-02 14:30N 11°27' W 150°53'0 0.0 26.8
2015-Mar-02 14:15N 11°27' W 150°53'1 0.7 26.8
2015-Mar-02 13:00N 11°27' W 150°52'1 0.6 26.8
2015-Mar-02 11:30N 11°26' W 150°52'310.6 26.8
2015-Mar-02 11:15N 11°24' W 150°50'0 0.0 26.8
2015-Mar-02 09:00N 11°24' W 150°50'1 1.0 26.8
2015-Mar-02 08:15N 11°25' W 150°49'3 1.3 26.8
2015-Mar-02 05:45N 11°24' W 150°46'0 0.0 26.9
2015-Mar-02 05:30N 11°24' W 150°46'0 0.0 26.9
2015-Mar-02 04:00N 11°24' W 150°46'0 0.0 26.9
2015-Mar-02 03:45N 11°24' W 150°46'1 3.3 26.9
2015-Mar-02 03:30N 11°24' W 150°45'0 0.0 26.9
2015-Mar-02 03:15N 11°24' W 150°45'0 0.0 26.9
2015-Mar-02 03:00N 11°24' W 150°45'1 2.9 26.9
2015-Mar-02 02:45N 11°23' W 150°45'1 1.2 26.9
2015-Mar-02 01:45N 11°23' W 150°43'0 0.0 26.9
2015-Mar-02 00:30N 11°23' W 150°43'312.5 26.9
2015-Mar-02 00:15N 11°23' W 150°40'0 0.0 26.9
2015-Mar-01 22:45N 11°23' W 150°40'3 1.1 26.9
2015-Mar-01 20:15N 11°25' W 150°38'0 0.0 26.9
2015-Mar-01 18:45N 11°25' W 150°38'2 6.7 26.8
2015-Mar-01 18:30N 11°24' W 150°36'0 0.3 26.8
2015-Mar-01 17:00N 11°24' W 150°36'1 1.0 26.8
2015-Mar-01 16:15N 11°25' W 150°35'1 1.5 26.8
2015-Mar-01 15:45N 11°24' W 150°36'1 1.5 26.8
2015-Mar-01 15:15N 11°25' W 150°35'0 0.1 26.8
2015-Mar-01 14:45N 11°25' W 150°35'0 0.0 26.9
2015-Mar-01 14:30N 11°25' W 150°35'5 0.8 26.9
2015-Mar-01 08:30N 11°27' W 150°31'1 1.4 26.9
2015-Mar-01 07:45N 11°27' W 150°30'0 0.0 26.9
2015-Mar-01 07:30N 11°27' W 150°30'1 1.3 26.9
2015-Mar-01 07:00N 11°27' W 150°31'1 2.5 26.9
2015-Mar-01 06:45N 11°27' W 150°30'1 0.2 26.9
2015-Mar-01 04:30N 11°27' W 150°30'0 0.0 27.0
2015-Mar-01 03:45N 11°27' W 150°30'1 2.0 27.0
2015-Mar-01 03:30N 11°28' W 150°29'0 0.0 27.0
2015-Mar-01 03:15N 11°28' W 150°29'0 0.0 27.0
2015-Mar-01 02:45N 11°28' W 150°29'1 0.9 27.0
2015-Mar-01 02:00N 11°28' W 150°29'0 0.0 27.0
2015-Mar-01 01:45N 11°28' W 150°29'0 0.0 27.0
2015-Mar-01 00:45N 11°28' W 150°29'0 1.9 27.0
2015-Mar-01 00:30N 11°29' W 150°29'1 0.8 27.0
2015-Feb-28 22:45N 11°29' W 150°27'0 0.0 26.9
2015-Feb-28 20:30N 11°29' W 150°27'0 0.7 26.8
2015-Feb-28 20:00N 11°29' W 150°27'0 0.0 26.8
2015-Feb-28 19:45N 11°29' W 150°27'0 0.6 26.8
2015-Feb-28 19:00N 11°29' W 150°28'1 0.5 26.8
2015-Feb-28 16:30N 11°29' W 150°26'0 0.0 26.7
2015-Feb-28 16:15N 11°29' W 150°26'0 0.0 26.7
2015-Feb-28 16:00N 11°29' W 150°26'0 0.0 26.8
2015-Feb-28 15:45N 11°29' W 150°26'0 0.0 26.8
2015-Feb-28 14:45N 11°29' W 150°26'2 0.8 26.8
2015-Feb-28 11:45N 11°28' W 150°24'0 0.0 26.9
2015-Feb-28 09:00N 11°28' W 150°24'1 1.3 26.9
2015-Feb-28 08:00N 11°27' W 150°23'0 0.1 26.9
2015-Feb-28 07:15N 11°27' W 150°23'0 0.0 26.9
2015-Feb-28 06:30N 11°27' W 150°23'0 1.7 26.9
2015-Feb-28 06:15N 11°27' W 150°23'0 0.0 26.9
2015-Feb-28 05:00N 11°27' W 150°23'1 1.1 27.0
2015-Feb-28 04:00N 11°26' W 150°22'2 0.8 27.0
2015-Feb-28 02:00N 11°27' W 150°21'2 0.8 27.1
2015-Feb-27 23:00N 11°26' W 150°18'0 0.0 27.0
2015-Feb-27 21:00N 11°26' W 150°18'2 2.2 26.9
2015-Feb-27 20:15N 11°26' W 150°17'2 6.5 26.8
2015-Feb-27 20:00N 11°26' W 150°18'3 2.2 26.8
2015-Feb-27 18:30N 11°27' W 150°15'0 0.0 26.8
2015-Feb-27 16:45N 11°27' W 150°15'1 4.5 26.8
2015-Feb-27 16:30N 11°27' W 150°14'0 0.0 26.8
2015-Feb-27 15:00N 11°27' W 150°14'1 4.2 26.8
2015-Feb-27 14:45N 11°27' W 150°13'0 0.0 26.8
2015-Feb-27 13:30N 11°27' W 150°13'1 0.4 26.8
2015-Feb-27 12:00N 11°27' W 150°12'0 0.0 26.8
2015-Feb-27 11:45N 11°27' W 150°12'3 0.9 26.8
2015-Feb-27 08:15N 11°28' W 150°09'0 0.0 26.8
2015-Feb-27 07:45N 11°28' W 150°09'2 9.9 26.8
2015-Feb-27 07:30N 11°28' W 150°06'0 0.0 26.9
2015-Feb-27 06:45N 11°28' W 150°06'0 0.0 26.9
2015-Feb-27 06:30N 11°28' W 150°06'0 0.0 26.9
2015-Feb-27 05:30N 11°28' W 150°06'0 0.0 26.9
2015-Feb-27 04:15N 11°28' W 150°06'1 3.5 26.9
2015-Feb-27 04:00N 11°28' W 150°06'0 0.0 26.9
2015-Feb-27 03:45N 11°28' W 150°06'2 0.6 27.0
2015-Feb-27 01:00N 11°28' W 150°04'0 0.0 27.0
2015-Feb-27 00:45N 11°28' W 150°04'2 1.5 27.0
2015-Feb-26 23:15N 11°28' W 150°02'0 0.0 26.9
2015-Feb-26 20:30N 11°28' W 150°02'2 2.4 26.8
2015-Feb-26 19:45N 11°29' W 150°00'0 0.0 26.8
2015-Feb-26 18:45N 11°29' W 150°00'3 0.8 26.8
2015-Feb-26 15:30N 11°31' W 149°59'0 0.0 26.8
2015-Feb-26 15:15N 11°31' W 149°59'0 0.0 26.8
2015-Feb-26 15:00N 11°31' W 149°59'3 1.7 26.8
2015-Feb-26 13:30N 11°33' W 149°56'0 0.0 26.8
2015-Feb-26 12:15N 11°33' W 149°56'0 0.0 26.8
2015-Feb-26 12:00N 11°33' W 149°56'0 0.0 26.8
2015-Feb-26 08:45N 11°33' W 149°56'1 1.2 26.8
2015-Feb-26 08:00N 11°33' W 149°56'0 0.0 26.8
2015-Feb-26 07:45N 11°33' W 149°56'0 0.0 26.8
2015-Feb-26 07:15N 11°33' W 149°56'0 0.0 26.8
2015-Feb-26 07:00N 11°33' W 149°56'1 0.5 26.8
2015-Feb-26 04:30N 11°33' W 149°54'0 0.0 26.9
2015-Feb-26 04:15N 11°33' W 149°54'0 0.0 26.9
2015-Feb-26 03:00N 11°33' W 149°54'1 1.3 26.9
2015-Feb-26 02:30N 11°32' W 149°55'1 0.8 26.9
2015-Feb-26 01:00N 11°31' W 149°54'0 0.0 27.0
2015-Feb-25 23:30N 11°31' W 149°54'310.7 26.9
2015-Feb-25 23:15N 11°31' W 149°51'0 0.0 26.9
2015-Feb-25 21:00N 11°31' W 149°51'0 0.0 26.8
2015-Feb-25 20:45N 11°31' W 149°51'1 1.1 26.8
2015-Feb-25 20:00N 11°31' W 149°50'0 0.2 26.8
2015-Feb-25 19:15N 11°31' W 149°50'2 7.5 26.8
2015-Feb-25 19:00N 11°32' W 149°49'0 0.0 26.8
2015-Feb-25 18:15N 11°32' W 149°49'0 0.0 26.8
2015-Feb-25 17:30N 11°32' W 149°49'0 0.0 26.8
2015-Feb-25 16:00N 11°32' W 149°49'1 2.6 26.8
2015-Feb-25 15:45N 11°32' W 149°48'0 0.0 26.8
2015-Feb-25 15:30N 11°32' W 149°48'0 0.0 26.8
2015-Feb-25 15:15N 11°32' W 149°48'1 0.9 26.8
2015-Feb-25 13:45N 11°32' W 149°47'0 0.0 26.8
2015-Feb-25 12:15N 11°32' W 149°47'3 0.8 26.8
2015-Feb-25 09:00N 11°34' W 149°44'0 0.0 26.8
2015-Feb-25 07:30N 11°34' W 149°44'1 2.4 26.8
2015-Feb-25 07:15N 11°34' W 149°44'0 0.0 26.8
2015-Feb-25 06:45N 11°34' W 149°44'0 1.0 26.8
2015-Feb-25 06:30N 11°34' W 149°44'2 1.2 26.8
2015-Feb-25 05:00N 11°33' W 149°42'2 7.5 26.8
2015-Feb-25 04:45N 11°34' W 149°44'2 1.2 26.8
2015-Feb-25 03:15N 11°33' W 149°42'2 4.3 26.9
2015-Feb-25 02:45N 11°33' W 149°40'0 0.0 26.9
2015-Feb-25 02:30N 11°33' W 149°40'0 0.0 26.9
2015-Feb-25 01:15N 11°33' W 149°40'0 0.0 26.9
2015-Feb-24 23:45N 11°33' W 149°40'2 7.6 26.9
2015-Feb-24 23:30N 11°34' W 149°38'2 0.6 26.9
2015-Feb-24 20:30N 11°34' W 149°36'0 0.0 26.8
2015-Feb-24 20:15N 11°34' W 149°36'0 0.0 26.8
2015-Feb-24 19:30N 11°34' W 149°36'1 1.1 26.8
2015-Feb-24 18:45N 11°34' W 149°36'0 0.0 26.8
2015-Feb-24 18:30N 11°34' W 149°36'1 0.3 26.8
2015-Feb-24 16:15N 11°34' W 149°35'0 0.0 26.8
2015-Feb-24 15:45N 11°34' W 149°35'0 0.0 26.8
2015-Feb-24 15:30N 11°34' W 149°35'2 2.3 26.8
2015-Feb-24 14:45N 11°36' W 149°34'1 1.1 26.8
2015-Feb-24 14:00N 11°35' W 149°34'0 0.0 26.8
2015-Feb-24 13:45N 11°35' W 149°34'0 0.0 26.8
2015-Feb-24 12:30N 11°35' W 149°34'0 0.0 26.8
2015-Feb-24 12:15N 11°35' W 149°34'3 2.1 26.8
2015-Feb-24 10:45N 11°34' W 149°31'0 0.0 26.8
2015-Feb-24 08:45N 11°34' W 149°31'0 0.0 26.9
2015-Feb-24 07:45N 11°34' W 149°31'0 0.0 26.9
2015-Feb-24 07:00N 11°34' W 149°31'2 1.0 26.9
2015-Feb-24 05:30N 11°33' W 149°31'0 0.0 26.9
2015-Feb-24 05:15N 11°33' W 149°31'2 1.3 26.9
2015-Feb-24 03:45N 11°34' W 149°29'0 0.0 26.9
2015-Feb-24 03:30N 11°34' W 149°29'714.0 26.9
2015-Feb-24 03:00N 11°34' W 149°22'0 0.0 27.0
2015-Feb-24 02:45N 11°34' W 149°22'0 0.0 27.0
2015-Feb-24 01:30N 11°34' W 149°22'0 0.0 27.0
2015-Feb-24 00:00N 11°34' W 149°22'0 0.0 27.0
2015-Feb-23 23:45N 11°34' W 149°22'0 0.0 27.0
2015-Feb-23 20:45N 11°34' W 149°22'0 0.0 26.9
2015-Feb-23 20:30N 11°34' W 149°22'0 0.0 26.9
2015-Feb-23 20:00N 11°34' W 149°22'0 0.4 26.9
2015-Feb-23 19:00N 11°34' W 149°22'0 0.0 26.9
2015-Feb-23 17:00N 11°34' W 149°22'2 6.6 26.9
2015-Feb-23 16:45N 11°35' W 149°21'0 0.0 26.9
2015-Feb-23 15:45N 11°35' W 149°21'1 1.2 26.9
2015-Feb-23 15:00N 11°34' W 149°20'0 0.0 26.9
2015-Feb-23 14:15N 11°34' W 149°20'1 3.1 26.9
2015-Feb-23 14:00N 11°34' W 149°19'0 0.0 26.9
2015-Feb-23 12:45N 11°34' W 149°19'0 0.0 26.9
2015-Feb-23 12:30N 11°34' W 149°19'3 2.1 26.9
2015-Feb-23 11:00N 11°33' W 149°16'0 0.0 26.9
2015-Feb-23 08:15N 11°33' W 149°16'1 2.7 26.9
2015-Feb-23 08:00N 11°33' W 149°16'   26.9

Dump ship's entire track history